createdAt,value
2023-01-21T00:03:37.685Z,12.97
2023-01-21T00:07:40.583Z,9.70
2023-01-21T00:11:44.844Z,10.87
2023-01-21T00:15:48.104Z,11.77
2023-01-21T00:19:51.083Z,8.53
2023-01-21T00:23:54.039Z,10.57
2023-01-21T00:28:00.035Z,10.07
2023-01-21T00:32:03.106Z,11.37
2023-01-21T00:36:08.580Z,10.57
2023-01-21T00:40:12.848Z,9.17
2023-01-21T00:44:17.789Z,10.10
2023-01-21T00:48:21.153Z,8.77
2023-01-21T00:52:24.049Z,11.83
2023-01-21T00:56:26.959Z,12.57
2023-01-21T01:00:31.319Z,11.03
2023-01-21T01:04:34.212Z,11.47
2023-01-21T01:08:37.602Z,11.37
2023-01-21T01:12:40.503Z,8.67
2023-01-21T01:16:44.982Z,9.60
2023-01-21T01:20:48.445Z,9.63
2023-01-21T01:24:51.302Z,10.60
2023-01-21T01:28:54.393Z,10.03
2023-01-21T01:32:58.710Z,11.30
2023-01-21T01:37:01.604Z,9.00
2023-01-21T01:41:05.093Z,8.33
2023-01-21T01:45:17.962Z,10.80
2023-01-21T01:49:23.347Z,9.33
2023-01-21T01:53:27.903Z,9.77
2023-01-21T01:57:36.743Z,7.77
2023-01-21T02:01:40.299Z,9.93
2023-01-21T02:05:46.106Z,8.73
2023-01-21T02:09:49.497Z,9.63
2023-01-21T02:13:55.446Z,9.70
2023-01-21T02:18:08.135Z,9.47
2023-01-21T02:22:20.873Z,7.80
2023-01-21T02:26:56.736Z,8.07
2023-01-21T02:31:27.179Z,7.87
2023-01-21T02:35:41.961Z,8.23
2023-01-21T02:39:59.743Z,10.47
2023-01-21T02:44:11.344Z,8.53
2023-01-21T02:48:19.022Z,8.50
2023-01-21T02:52:25.104Z,7.57
2023-01-21T02:56:28.987Z,8.60
2023-01-21T03:00:43.687Z,8.00
2023-01-21T03:04:58.938Z,9.00
2023-01-21T03:09:11.528Z,7.30
2023-01-21T03:13:39.445Z,6.27
2023-01-21T03:17:46.769Z,8.93
2023-01-21T03:21:51.915Z,7.50
2023-01-21T03:25:58.561Z,8.53
2023-01-21T03:30:05.930Z,6.67
2023-01-21T03:34:12.504Z,6.13
2023-01-21T03:38:19.497Z,7.67
2023-01-21T03:42:24.373Z,6.60
2023-01-21T03:46:37.739Z,6.57
2023-01-21T03:50:44.230Z,6.97
2023-01-21T03:54:48.348Z,9.73
2023-01-21T03:58:52.831Z,7.13
2023-01-21T04:02:55.853Z,7.73
2023-01-21T04:06:58.866Z,8.33
2023-01-21T04:11:01.888Z,6.93
2023-01-21T04:15:07.743Z,8.73
2023-01-21T04:19:11.240Z,7.53
2023-01-21T04:23:14.581Z,9.77
2023-01-21T04:27:17.581Z,10.37
2023-01-21T04:31:22.129Z,7.60
2023-01-21T04:35:25.233Z,6.77
2023-01-21T04:39:28.306Z,7.67
2023-01-21T04:43:31.347Z,6.67
2023-01-21T04:47:35.718Z,10.07
2023-01-21T04:51:38.740Z,7.10
2023-01-21T04:55:41.764Z,8.00
2023-01-21T04:59:44.765Z,8.27
2023-01-21T05:03:49.169Z,9.47
2023-01-21T05:07:53.731Z,7.43
2023-01-21T05:11:56.744Z,7.17
2023-01-21T05:16:04.899Z,7.40
2023-01-21T05:20:11.055Z,6.00
2023-01-21T05:24:14.556Z,6.63
2023-01-21T05:28:17.648Z,6.87
2023-01-21T05:32:21.016Z,8.67
2023-01-21T05:36:25.605Z,5.67
2023-01-21T05:40:28.633Z,6.63
2023-01-21T05:44:31.775Z,7.03
2023-01-21T05:48:34.807Z,6.87
2023-01-21T05:52:39.344Z,6.73
2023-01-21T05:56:42.424Z,6.67
2023-01-21T06:00:47.581Z,7.03
2023-01-21T06:04:50.627Z,7.50
2023-01-21T06:08:55.029Z,6.90
2023-01-21T06:12:58.077Z,5.70
2023-01-21T06:17:01.295Z,6.17
2023-01-21T06:21:04.424Z,5.87
2023-01-21T06:25:10.149Z,4.87
2023-01-21T06:29:13.237Z,7.20
2023-01-21T06:33:16.244Z,5.53
2023-01-21T06:37:19.240Z,6.87
2023-01-21T06:41:23.627Z,5.23
2023-01-21T06:45:26.663Z,6.17
2023-01-21T06:49:29.749Z,7.23
2023-01-21T06:53:32.762Z,6.60
2023-01-21T06:57:38.681Z,5.47
2023-01-21T07:01:41.813Z,5.00
2023-01-21T07:05:45.052Z,5.40
2023-01-21T07:09:48.103Z,6.57
2023-01-21T07:13:52.536Z,6.40
2023-01-21T07:17:55.714Z,5.63
2023-01-21T07:21:58.800Z,5.00
2023-01-21T07:26:02.062Z,4.50
2023-01-21T07:30:07.843Z,5.80
2023-01-21T07:34:11.268Z,4.10
2023-01-21T07:38:14.284Z,4.93
2023-01-21T07:42:17.400Z,5.40
2023-01-21T07:46:23.218Z,5.67
2023-01-21T07:50:26.338Z,3.80
2023-01-21T07:54:29.651Z,4.10
2023-01-21T07:58:32.694Z,4.10
2023-01-21T08:02:37.257Z,6.43
2023-01-21T08:06:41.487Z,5.40
2023-01-21T08:10:44.585Z,4.43
2023-01-21T08:14:47.739Z,5.47
2023-01-21T08:18:53.016Z,4.43
2023-01-21T08:22:56.026Z,5.30
2023-01-21T08:27:00.012Z,3.77
2023-01-21T08:31:08.454Z,3.77
2023-01-21T08:35:12.906Z,5.30
2023-01-21T08:39:16.623Z,5.73
2023-01-21T08:43:19.710Z,8.50
2023-01-21T08:47:22.753Z,4.70
2023-01-21T08:51:27.479Z,5.97
2023-01-21T08:55:30.569Z,6.67
2023-01-21T08:59:33.645Z,3.83
2023-01-21T09:03:36.787Z,4.83
2023-01-21T09:07:41.208Z,5.20
2023-01-21T09:11:44.512Z,4.70
2023-01-21T09:15:47.600Z,4.67
2023-01-21T09:19:51.204Z,4.73
2023-01-21T09:23:55.609Z,4.60
2023-01-21T09:27:58.878Z,3.97
2023-01-21T09:32:02.545Z,5.57
2023-01-21T09:36:07.863Z,4.50
2023-01-21T09:40:17.455Z,4.87
2023-01-21T09:44:26.661Z,3.67
2023-01-21T09:48:37.385Z,5.37
2023-01-21T09:52:41.611Z,4.73
2023-01-21T09:57:06.229Z,4.03
2023-01-21T10:01:14.672Z,4.03
2023-01-21T10:05:44.433Z,5.27
2023-01-21T10:10:07.851Z,5.00
2023-01-21T10:14:30.741Z,4.67
2023-01-21T10:18:38.772Z,3.73
2023-01-21T10:22:47.296Z,5.50
2023-01-21T10:26:53.794Z,4.93
2023-01-21T10:31:07.685Z,2.83
2023-01-21T10:35:18.879Z,4.23
2023-01-21T10:39:35.790Z,3.93
2023-01-21T10:43:46.715Z,3.57
2023-01-21T10:47:57.892Z,4.17
2023-01-21T10:52:08.303Z,3.37
2023-01-21T10:56:20.951Z,4.17
2023-01-21T11:00:26.631Z,4.13
2023-01-21T11:04:31.397Z,3.23
2023-01-21T11:08:34.458Z,3.87
2023-01-21T11:12:37.513Z,4.57
2023-01-21T11:16:46.357Z,4.53
2023-01-21T11:20:51.077Z,4.03
2023-01-21T11:24:54.404Z,4.43
2023-01-21T11:29:15.553Z,4.90
2023-01-21T11:33:26.858Z,3.10
2023-01-21T11:37:33.157Z,4.93
2023-01-21T11:41:36.985Z,3.20
2023-01-21T11:45:40.008Z,4.03
2023-01-21T11:49:48.956Z,3.60
2023-01-21T11:58:24.967Z,4.53
2023-01-21T12:02:31.509Z,3.77
2023-01-21T12:06:37.093Z,3.53
2023-01-21T12:10:45.687Z,3.03
2023-01-21T12:14:54.839Z,4.43
2023-01-21T12:19:26.083Z,4.17
2023-01-21T12:23:53.501Z,4.07
2023-01-21T12:28:07.475Z,4.23
2023-01-21T12:32:15.247Z,4.83
2023-01-21T12:36:24.346Z,4.43
2023-01-21T12:40:33.023Z,4.10
2023-01-21T12:44:42.925Z,4.80
2023-01-21T12:48:52.975Z,4.83
2023-01-21T12:53:12.401Z,5.83
2023-01-21T12:57:21.784Z,4.20
2023-01-21T13:01:50.314Z,4.63
2023-01-21T13:05:59.587Z,4.67
2023-01-21T13:10:13.572Z,4.13
2023-01-21T13:14:26.161Z,4.00
2023-01-21T13:18:35.595Z,3.33
2023-01-21T13:22:44.038Z,4.43
2023-01-21T13:26:55.723Z,4.73
2023-01-21T13:31:04.948Z,4.30
2023-01-21T13:35:32.950Z,6.83
2023-01-21T13:39:49.396Z,4.50
2023-01-21T13:44:07.051Z,5.57
2023-01-21T13:48:31.797Z,6.37
2023-01-21T13:52:44.989Z,4.37
2023-01-21T13:57:21.547Z,5.27
2023-01-21T14:01:29.027Z,5.03
2023-01-21T14:05:38.559Z,5.97
2023-01-21T14:09:48.611Z,3.57
2023-01-21T14:14:22.410Z,4.00
2023-01-21T14:18:49.339Z,4.80
2023-01-21T14:23:15.000Z,3.90
2023-01-21T14:27:29.560Z,3.80
2023-01-21T14:31:39.418Z,5.00
2023-01-21T14:35:48.391Z,5.53
2023-01-21T14:39:59.319Z,4.43
2023-01-21T14:44:02.463Z,4.27
2023-01-21T14:48:31.418Z,5.47
2023-01-21T14:52:39.143Z,2.97
2023-01-21T14:56:53.613Z,7.00
2023-01-21T15:00:56.721Z,5.57
2023-01-21T15:05:03.522Z,6.63
2023-01-21T15:09:09.267Z,4.77
2023-01-21T15:13:29.073Z,4.53
2023-01-21T15:17:46.702Z,3.80
2023-01-21T15:22:24.253Z,5.40
2023-01-21T15:26:33.822Z,4.17
2023-01-21T15:30:53.844Z,5.97
2023-01-21T15:35:05.099Z,5.50
2023-01-21T15:39:15.348Z,4.50
2023-01-21T15:43:27.063Z,4.57
2023-01-21T15:47:46.282Z,3.77
2023-01-21T15:52:02.491Z,5.13
2023-01-21T15:56:29.313Z,9.53
2023-01-21T16:00:39.114Z,5.43
2023-01-21T16:04:49.426Z,4.87
2023-01-21T16:09:04.951Z,3.97
2023-01-21T16:13:17.334Z,4.37
2023-01-21T16:17:27.243Z,5.23
2023-01-21T16:21:34.382Z,6.97
2023-01-21T16:25:47.328Z,6.03
2023-01-21T16:29:57.678Z,4.87
2023-01-21T16:34:00.673Z,5.40
2023-01-21T16:38:03.876Z,4.50
2023-01-21T16:42:14.778Z,4.23
2023-01-21T16:46:22.366Z,4.60
2023-01-21T16:50:28.116Z,6.43
2023-01-21T16:54:32.863Z,5.27
2023-01-21T16:58:36.402Z,6.50
2023-01-21T17:02:40.819Z,6.10
2023-01-21T17:06:46.511Z,5.10
2023-01-21T17:10:57.252Z,9.13
2023-01-21T17:15:03.580Z,5.70
2023-01-21T17:19:18.463Z,5.30
2023-01-21T17:23:25.811Z,7.07
2023-01-21T17:27:30.161Z,5.80
2023-01-21T17:31:38.048Z,6.17
2023-01-21T17:36:13.251Z,5.43
2023-01-21T17:40:29.022Z,7.50
2023-01-21T17:44:32.119Z,8.17
2023-01-21T17:48:39.112Z,7.80
2023-01-21T17:52:43.665Z,7.77
2023-01-21T17:56:51.493Z,6.70
2023-01-21T18:00:54.627Z,7.10
2023-01-21T18:04:57.708Z,7.13
2023-01-21T18:09:03.580Z,6.37
2023-01-21T18:13:06.833Z,8.27
2023-01-21T18:17:12.576Z,8.03
2023-01-21T18:21:20.948Z,8.23
2023-01-21T18:25:28.090Z,6.53
2023-01-21T18:29:31.962Z,9.00
2023-01-21T18:33:34.972Z,5.97
2023-01-21T18:37:38.080Z,8.23
2023-01-21T18:41:42.716Z,7.30
2023-01-21T18:45:45.792Z,7.70
2023-01-21T18:49:50.841Z,5.93
2023-01-21T18:53:53.847Z,6.23
2023-01-21T18:57:58.548Z,6.53
2023-01-21T19:02:01.612Z,7.87
2023-01-21T19:06:11.917Z,8.40
2023-01-21T19:10:17.345Z,9.43
2023-01-21T19:14:22.003Z,9.10
2023-01-21T19:18:26.777Z,7.17
2023-01-21T19:22:29.796Z,8.57
2023-01-21T19:26:32.848Z,8.70
2023-01-21T19:30:38.462Z,8.20
2023-01-21T19:34:42.492Z,8.30
2023-01-21T19:38:50.945Z,9.37
2023-01-21T19:42:54.621Z,7.37
2023-01-21T19:47:02.009Z,9.37
2023-01-21T19:51:05.355Z,10.00
2023-01-21T19:55:09.166Z,7.83
2023-01-21T19:59:15.502Z,8.37
2023-01-21T20:03:21.533Z,9.87
2023-01-21T20:07:24.569Z,9.67
2023-01-21T20:11:27.624Z,10.13
2023-01-21T20:15:34.235Z,8.17
2023-01-21T20:19:38.632Z,7.87
2023-01-21T20:23:41.923Z,9.40
2023-01-21T20:27:47.559Z,9.30
2023-01-21T20:31:51.933Z,9.73
2023-01-21T20:35:57.679Z,10.37
2023-01-21T20:40:00.705Z,8.77
2023-01-21T20:44:04.123Z,8.97
2023-01-21T20:48:07.692Z,9.67
2023-01-21T20:52:12.502Z,9.50
2023-01-21T20:56:19.909Z,9.03
2023-01-21T21:00:25.436Z,9.10
2023-01-21T21:04:29.987Z,8.97
2023-01-21T21:08:34.389Z,9.20
2023-01-21T21:12:37.482Z,8.80
2023-01-21T21:16:40.610Z,8.87
2023-01-21T21:20:43.860Z,8.57
2023-01-21T21:24:48.258Z,8.33
2023-01-21T21:28:54.570Z,6.70
2023-01-21T21:32:59.542Z,8.50
2023-01-21T21:37:02.572Z,7.10
2023-01-21T21:41:27.155Z,9.77
2023-01-21T21:45:30.439Z,9.67
2023-01-21T21:49:33.663Z,8.60
2023-01-21T21:53:37.921Z,9.90
2023-01-21T21:57:42.342Z,7.47
2023-01-21T22:01:45.883Z,8.20
2023-01-21T22:05:52.845Z,8.77
2023-01-21T22:09:55.883Z,8.60
2023-01-21T22:14:03.810Z,9.07
2023-01-21T22:18:07.115Z,9.60
2023-01-21T22:22:10.132Z,12.60
2023-01-21T22:26:15.722Z,9.93
2023-01-21T22:30:20.239Z,8.30
2023-01-21T22:34:23.225Z,7.83
2023-01-21T22:38:26.237Z,9.37
2023-01-21T22:42:29.276Z,9.60
2023-01-21T22:46:34.236Z,9.30
2023-01-21T22:50:41.312Z,9.40
2023-01-21T22:54:44.308Z,13.17
2023-01-21T22:58:47.417Z,9.03
2023-01-21T23:02:52.029Z,9.60
2023-01-21T23:06:55.909Z,8.37
2023-01-21T23:11:02.920Z,8.17
2023-01-21T23:15:06.649Z,9.13
2023-01-21T23:19:11.074Z,8.10
2023-01-21T23:23:14.303Z,8.13
2023-01-21T23:27:17.302Z,9.10
2023-01-21T23:31:20.409Z,8.53
2023-01-21T23:35:24.855Z,8.73
2023-01-21T23:39:27.871Z,8.50
2023-01-21T23:43:30.893Z,9.60
2023-01-21T23:47:33.904Z,8.50
2023-01-21T23:51:38.419Z,9.90
2023-01-21T23:55:41.487Z,9.43
2023-01-21T23:59:45.323Z,8.13
